sensor_id;sensor_type;location;lat;lon;timestamp;pressure;altitude;pressure_sealevel;temperature;humidity
36192;BME280;22233;42.708;23.360;2024-03-29T00:01:46;95165.63;;;14.80;44.91
36192;BME280;22233;42.708;23.360;2024-03-29T00:04:12;95160.59;;;14.82;44.92
36192;BME280;22233;42.708;23.360;2024-03-29T00:06:37;95175.81;;;14.95;44.86
36192;BME280;22233;42.708;23.360;2024-03-29T00:09:02;95146.19;;;14.56;45.58
36192;BME280;22233;42.708;23.360;2024-03-29T00:11:28;95176.34;;;14.48;45.67
36192;BME280;22233;42.708;23.360;2024-03-29T00:13:54;95161.09;;;14.22;45.91
36192;BME280;22233;42.708;23.360;2024-03-29T00:16:19;95164.31;;;14.12;45.80
36192;BME280;22233;42.708;23.360;2024-03-29T00:18:47;95174.69;;;14.18;45.86
36192;BME280;22233;42.708;23.360;2024-03-29T00:21:12;95160.38;;;13.64;46.98
36192;BME280;22233;42.708;23.360;2024-03-29T00:23:38;95172.59;;;13.78;47.41
36192;BME280;22233;42.708;23.360;2024-03-29T00:26:03;95186.13;;;13.87;46.31
36192;BME280;22233;42.708;23.360;2024-03-29T00:28:28;95192.50;;;13.79;47.39
36192;BME280;22233;42.708;23.360;2024-03-29T00:30:54;95197.38;;;13.86;47.08
36192;BME280;22233;42.708;23.360;2024-03-29T00:33:20;95187.97;;;13.95;47.17
36192;BME280;22233;42.708;23.360;2024-03-29T00:35:45;95200.13;;;14.10;46.18
36192;BME280;22233;42.708;23.360;2024-03-29T00:38:10;95194.13;;;14.29;46.14
36192;BME280;22233;42.708;23.360;2024-03-29T00:40:37;95196.19;;;14.45;46.60
36192;BME280;22233;42.708;23.360;2024-03-29T00:43:02;95193.91;;;14.59;46.06
36192;BME280;22233;42.708;23.360;2024-03-29T00:45:27;95191.53;;;14.57;45.86
36192;BME280;22233;42.708;23.360;2024-03-29T00:47:53;95195.25;;;14.28;46.22
36192;BME280;22233;42.708;23.360;2024-03-29T00:50:19;95198.09;;;14.44;46.40
36192;BME280;22233;42.708;23.360;2024-03-29T00:52:45;95196.88;;;14.29;46.46
36192;BME280;22233;42.708;23.360;2024-03-29T00:55:10;95199.59;;;14.42;46.00
36192;BME280;22233;42.708;23.360;2024-03-29T00:57:36;95186.38;;;14.07;47.28
36192;BME280;22233;42.708;23.360;2024-03-29T01:00:01;95200.81;;;13.83;48.11
36192;BME280;22233;42.708;23.360;2024-03-29T01:02:28;95189.78;;;14.16;47.24
36192;BME280;22233;42.708;23.360;2024-03-29T01:04:54;95183.88;;;14.14;47.28
36192;BME280;22233;42.708;23.360;2024-03-29T01:07:19;95178.59;;;13.84;47.32
36192;BME280;22233;42.708;23.360;2024-03-29T01:09:45;95192.75;;;13.98;47.36
36192;BME280;22233;42.708;23.360;2024-03-29T01:12:10;95178.59;;;13.72;48.10
36192;BME280;22233;42.708;23.360;2024-03-29T01:14:36;95192.31;;;13.96;47.30
36192;BME280;22233;42.708;23.360;2024-03-29T01:17:02;95200.56;;;13.88;48.08
36192;BME280;22233;42.708;23.360;2024-03-29T01:19:27;95207.97;;;13.87;47.81
36192;BME280;22233;42.708;23.360;2024-03-29T01:21:53;95191.16;;;13.97;47.29
36192;BME280;22233;42.708;23.360;2024-03-29T01:24:18;95195.50;;;14.11;47.57
36192;BME280;22233;42.708;23.360;2024-03-29T01:26:43;95186.41;;;14.19;46.63
36192;BME280;22233;42.708;23.360;2024-03-29T01:29:09;95186.97;;;14.37;46.44
36192;BME280;22233;42.708;23.360;2024-03-29T01:31:36;95187.88;;;14.41;46.28
36192;BME280;22233;42.708;23.360;2024-03-29T01:34:01;95207.78;;;14.54;46.58
36192;BME280;22233;42.708;23.360;2024-03-29T01:36:28;95210.06;;;14.52;46.62
36192;BME280;22233;42.708;23.360;2024-03-29T01:38:53;95216.44;;;14.44;46.76
36192;BME280;22233;42.708;23.360;2024-03-29T01:41:22;95213.38;;;14.57;46.42
36192;BME280;22233;42.708;23.360;2024-03-29T01:43:49;95226.47;;;14.64;46.42
36192;BME280;22233;42.708;23.360;2024-03-29T01:46:14;95227.16;;;14.61;46.83
36192;BME280;22233;42.708;23.360;2024-03-29T01:48:40;95231.72;;;14.69;46.89
36192;BME280;22233;42.708;23.360;2024-03-29T01:51:06;95236.94;;;14.25;47.10
36192;BME280;22233;42.708;23.360;2024-03-29T01:53:31;95251.84;;;14.40;47.26
36192;BME280;22233;42.708;23.360;2024-03-29T01:55:59;95249.59;;;13.84;47.61
36192;BME280;22233;42.708;23.360;2024-03-29T01:58:25;95262.75;;;14.15;47.47
36192;BME280;22233;42.708;23.360;2024-03-29T02:00:57;95255.47;;;14.07;47.36
36192;BME280;22233;42.708;23.360;2024-03-29T02:03:23;95264.44;;;13.95;47.55
36192;BME280;22233;42.708;23.360;2024-03-29T02:05:49;95264.59;;;14.24;46.58
36192;BME280;22233;42.708;23.360;2024-03-29T02:08:15;95269.25;;;14.11;47.36
36192;BME280;22233;42.708;23.360;2024-03-29T02:10:41;95285.75;;;13.48;48.14
36192;BME280;22233;42.708;23.360;2024-03-29T02:13:07;95273.66;;;13.36;49.13
36192;BME280;22233;42.708;23.360;2024-03-29T02:15:32;95288.28;;;13.32;49.20
36192;BME280;22233;42.708;23.360;2024-03-29T02:17:58;95282.06;;;13.02;49.69
36192;BME280;22233;42.708;23.360;2024-03-29T02:20:24;95292.72;;;12.94;49.56
36192;BME280;22233;42.708;23.360;2024-03-29T02:23:11;95320.13;;;12.59;50.61
36192;BME280;22233;42.708;23.360;2024-03-29T02:25:39;95315.53;;;13.11;49.00
36192;BME280;22233;42.708;23.360;2024-03-29T02:28:04;95320.88;;;13.28;49.12
36192;BME280;22233;42.708;23.360;2024-03-29T02:30:30;95330.81;;;13.33;48.57
36192;BME280;22233;42.708;23.360;2024-03-29T02:32:56;95329.88;;;13.50;48.46
36192;BME280;22233;42.708;23.360;2024-03-29T02:35:22;95328.94;;;13.67;47.90
36192;BME280;22233;42.708;23.360;2024-03-29T02:37:47;95325.63;;;13.61;48.24
36192;BME280;22233;42.708;23.360;2024-03-29T02:40:13;95339.28;;;13.61;48.52
36192;BME280;22233;42.708;23.360;2024-03-29T02:42:38;95339.31;;;13.73;48.01
36192;BME280;22233;42.708;23.360;2024-03-29T02:45:04;95355.28;;;13.84;48.12
36192;BME280;22233;42.708;23.360;2024-03-29T02:47:29;95350.19;;;13.61;48.84
36192;BME280;22233;42.708;23.360;2024-03-29T02:49:55;95312.41;;;13.21;49.56
36192;BME280;22233;42.708;23.360;2024-03-29T02:52:20;95347.72;;;13.68;48.36
36192;BME280;22233;42.708;23.360;2024-03-29T02:54:46;95359.31;;;13.44;49.24
36192;BME280;22233;42.708;23.360;2024-03-29T02:57:11;95337.94;;;13.46;48.28
36192;BME280;22233;42.708;23.360;2024-03-29T02:59:36;95356.72;;;13.69;48.52
36192;BME280;22233;42.708;23.360;2024-03-29T03:02:04;95334.28;;;13.63;48.76
36192;BME280;22233;42.708;23.360;2024-03-29T03:04:29;95348.09;;;13.79;48.40
36192;BME280;22233;42.708;23.360;2024-03-29T03:06:54;95356.34;;;13.91;47.90
36192;BME280;22233;42.708;23.360;2024-03-29T03:09:21;95346.22;;;13.92;47.77
36192;BME280;22233;42.708;23.360;2024-03-29T03:12:05;95349.50;;;13.85;48.60
36192;BME280;22233;42.708;23.360;2024-03-29T03:14:30;95363.00;;;13.82;48.09
36192;BME280;22233;42.708;23.360;2024-03-29T03:16:56;95363.91;;;13.52;48.42
36192;BME280;22233;42.708;23.360;2024-03-29T03:19:22;95378.13;;;13.58;49.09
36192;BME280;22233;42.708;23.360;2024-03-29T03:21:50;95376.09;;;13.55;48.95
36192;BME280;22233;42.708;23.360;2024-03-29T03:24:15;95387.53;;;13.18;49.94
36192;BME280;22233;42.708;23.360;2024-03-29T03:26:41;95384.22;;;13.34;50.12
36192;BME280;22233;42.708;23.360;2024-03-29T03:29:06;95382.47;;;13.59;48.77
36192;BME280;22233;42.708;23.360;2024-03-29T03:31:33;95399.91;;;13.88;48.59
36192;BME280;22233;42.708;23.360;2024-03-29T03:33:58;95399.44;;;13.86;48.68
36192;BME280;22233;42.708;23.360;2024-03-29T03:36:23;95393.88;;;14.15;47.75
36192;BME280;22233;42.708;23.360;2024-03-29T03:38:49;95413.59;;;14.21;47.53
36192;BME280;22233;42.708;23.360;2024-03-29T03:41:14;95405.72;;;14.19;47.95
36192;BME280;22233;42.708;23.360;2024-03-29T03:43:39;95415.69;;;14.36;46.78
36192;BME280;22233;42.708;23.360;2024-03-29T03:46:05;95429.00;;;14.38;47.09
36192;BME280;22233;42.708;23.360;2024-03-29T03:48:30;95432.75;;;14.33;47.31
36192;BME280;22233;42.708;23.360;2024-03-29T03:50:56;95425.88;;;14.15;48.01
36192;BME280;22233;42.708;23.360;2024-03-29T03:53:21;95424.13;;;14.10;47.91
36192;BME280;22233;42.708;23.360;2024-03-29T03:55:47;95420.81;;;13.63;49.28
36192;BME280;22233;42.708;23.360;2024-03-29T03:58:13;95442.91;;;14.12;47.62
36192;BME280;22233;42.708;23.360;2024-03-29T04:00:38;95427.03;;;14.26;47.28
36192;BME280;22233;42.708;23.360;2024-03-29T04:03:03;95443.00;;;14.36;47.20
36192;BME280;22233;42.708;23.360;2024-03-29T04:05:29;95425.94;;;14.39;46.90
36192;BME280;22233;42.708;23.360;2024-03-29T04:07:57;95440.59;;;14.56;46.92
36192;BME280;22233;42.708;23.360;2024-03-29T04:10:22;95454.06;;;14.61;46.79
36192;BME280;22233;42.708;23.360;2024-03-29T04:12:47;95450.88;;;14.59;46.94
36192;BME280;22233;42.708;23.360;2024-03-29T04:15:13;95458.53;;;14.78;46.50
36192;BME280;22233;42.708;23.360;2024-03-29T04:17:38;95455.25;;;14.51;46.70
36192;BME280;22233;42.708;23.360;2024-03-29T04:20:04;95477.06;;;14.60;46.63
36192;BME280;22233;42.708;23.360;2024-03-29T04:22:30;95480.50;;;14.69;47.09
36192;BME280;22233;42.708;23.360;2024-03-29T04:24:56;95476.84;;;14.65;46.96
36192;BME280;22233;42.708;23.360;2024-03-29T04:27:21;95480.72;;;14.64;47.45
36192;BME280;22233;42.708;23.360;2024-03-29T04:29:50;95480.94;;;14.59;47.59
36192;BME280;22233;42.708;23.360;2024-03-29T04:32:16;95494.06;;;14.66;47.53
36192;BME280;22233;42.708;23.360;2024-03-29T04:34:41;95494.44;;;14.55;47.77
36192;BME280;22233;42.708;23.360;2024-03-29T04:37:06;95498.03;;;14.68;47.61
36192;BME280;22233;42.708;23.360;2024-03-29T04:39:32;95505.53;;;14.59;48.62
36192;BME280;22233;42.708;23.360;2024-03-29T04:41:58;95488.63;;;14.24;48.61
36192;BME280;22233;42.708;23.360;2024-03-29T04:44:25;95512.75;;;14.01;48.59
36192;BME280;22233;42.708;23.360;2024-03-29T04:46:51;95515.91;;;13.82;49.86
36192;BME280;22233;42.708;23.360;2024-03-29T04:49:22;95506.28;;;13.54;50.04
36192;BME280;22233;42.708;23.360;2024-03-29T04:51:55;95509.25;;;13.41;51.04
36192;BME280;22233;42.708;23.360;2024-03-29T04:54:20;95528.84;;;13.34;50.81
36192;BME280;22233;42.708;23.360;2024-03-29T04:56:46;95523.59;;;13.20;51.48
36192;BME280;22233;42.708;23.360;2024-03-29T04:59:11;95526.44;;;13.24;52.22
36192;BME280;22233;42.708;23.360;2024-03-29T05:01:37;95533.19;;;13.26;51.42
36192;BME280;22233;42.708;23.360;2024-03-29T05:04:02;95527.88;;;13.30;51.18
36192;BME280;22233;42.708;23.360;2024-03-29T05:06:29;95536.88;;;13.22;51.66
36192;BME280;22233;42.708;23.360;2024-03-29T05:08:55;95500.81;;;13.16;51.70
36192;BME280;22233;42.708;23.360;2024-03-29T05:11:20;95532.03;;;13.36;51.61
36192;BME280;22233;42.708;23.360;2024-03-29T05:13:46;95551.06;;;13.53;51.81
36192;BME280;22233;42.708;23.360;2024-03-29T05:16:12;95559.81;;;13.68;51.74
36192;BME280;22233;42.708;23.360;2024-03-29T05:18:37;95549.25;;;13.66;51.26
36192;BME280;22233;42.708;23.360;2024-03-29T05:21:03;95558.81;;;13.81;51.02
36192;BME280;22233;42.708;23.360;2024-03-29T05:23:28;95552.00;;;13.87;51.28
36192;BME280;22233;42.708;23.360;2024-03-29T05:25:54;95562.66;;;13.80;51.36
36192;BME280;22233;42.708;23.360;2024-03-29T05:28:19;95557.78;;;13.94;51.41
36192;BME280;22233;42.708;23.360;2024-03-29T05:30:44;95565.09;;;14.03;51.31
36192;BME280;22233;42.708;23.360;2024-03-29T05:33:10;95561.53;;;13.81;51.89
36192;BME280;22233;42.708;23.360;2024-03-29T05:35:35;95585.72;;;13.91;52.09
36192;BME280;22233;42.708;23.360;2024-03-29T05:38:01;95567.38;;;14.01;51.65
36192;BME280;22233;42.708;23.360;2024-03-29T05:40:26;95567.63;;;14.08;52.03
36192;BME280;22233;42.708;23.360;2024-03-29T05:42:53;95577.22;;;14.14;51.21
36192;BME280;22233;42.708;23.360;2024-03-29T05:45:24;95573.38;;;14.15;51.83
36192;BME280;22233;42.708;23.360;2024-03-29T05:47:51;95549.59;;;14.15;51.34
36192;BME280;22233;42.708;23.360;2024-03-29T05:50:17;95574.44;;;14.44;51.07
36192;BME280;22233;42.708;23.360;2024-03-29T05:52:42;95571.44;;;14.36;51.21
36192;BME280;22233;42.708;23.360;2024-03-29T05:55:07;95565.59;;;14.47;50.83
36192;BME280;22233;42.708;23.360;2024-03-29T05:57:34;95565.22;;;14.57;50.25
36192;BME280;22233;42.708;23.360;2024-03-29T06:00:04;95567.53;;;14.67;50.42
36192;BME280;22233;42.708;23.360;2024-03-29T06:02:30;95566.06;;;14.70;50.25
36192;BME280;22233;42.708;23.360;2024-03-29T06:04:55;95577.78;;;14.70;50.86
36192;BME280;22233;42.708;23.360;2024-03-29T06:07:21;95587.34;;;14.85;49.87
36192;BME280;22233;42.708;23.360;2024-03-29T06:09:46;95589.88;;;15.03;49.71
36192;BME280;22233;42.708;23.360;2024-03-29T06:12:12;95577.72;;;14.79;50.04
36192;BME280;22233;42.708;23.360;2024-03-29T06:14:37;95591.81;;;15.02;49.86
36192;BME280;22233;42.708;23.360;2024-03-29T06:17:21;95596.53;;;15.14;48.72
36192;BME280;22233;42.708;23.360;2024-03-29T06:19:50;95595.81;;;15.38;48.23
36192;BME280;22233;42.708;23.360;2024-03-29T06:22:21;95573.19;;;14.83;49.42
36192;BME280;22233;42.708;23.360;2024-03-29T06:24:46;95572.69;;;15.14;48.58
36192;BME280;22233;42.708;23.360;2024-03-29T06:27:19;95603.09;;;15.34;48.55
36192;BME280;22233;42.708;23.360;2024-03-29T06:29:48;95595.47;;;15.40;48.33
36192;BME280;22233;42.708;23.360;2024-03-29T06:32:13;95596.47;;;15.47;48.39
36192;BME280;22233;42.708;23.360;2024-03-29T06:34:39;95586.03;;;15.62;47.53
36192;BME280;22233;42.708;23.360;2024-03-29T06:37:04;95585.78;;;15.67;46.85
36192;BME280;22233;42.708;23.360;2024-03-29T06:39:30;95603.06;;;16.04;46.59
36192;BME280;22233;42.708;23.360;2024-03-29T06:41:55;95601.81;;;15.89;46.88
36192;BME280;22233;42.708;23.360;2024-03-29T06:44:21;95606.13;;;16.27;51.27
36192;BME280;22233;42.708;23.360;2024-03-29T06:46:46;95599.19;;;16.83;44.44
36192;BME280;22233;42.708;23.360;2024-03-29T06:49:12;95598.03;;;16.71;44.09
36192;BME280;22233;42.708;23.360;2024-03-29T06:51:39;95608.25;;;16.99;43.99
36192;BME280;22233;42.708;23.360;2024-03-29T06:54:08;95609.25;;;16.66;44.23
36192;BME280;22233;42.708;23.360;2024-03-29T06:56:33;95604.19;;;16.81;43.26
36192;BME280;22233;42.708;23.360;2024-03-29T06:58:59;95603.25;;;16.48;44.09
36192;BME280;22233;42.708;23.360;2024-03-29T07:01:24;95602.97;;;16.66;43.83
36192;BME280;22233;42.708;23.360;2024-03-29T07:03:50;95599.97;;;16.30;43.88
36192;BME280;22233;42.708;23.360;2024-03-29T07:06:15;95599.13;;;16.54;43.77
36192;BME280;22233;42.708;23.360;2024-03-29T07:08:43;95605.47;;;16.83;43.35
36192;BME280;22233;42.708;23.360;2024-03-29T07:11:09;95591.53;;;17.04;43.78
36192;BME280;22233;42.708;23.360;2024-03-29T07:13:35;95593.25;;;17.09;43.44
36192;BME280;22233;42.708;23.360;2024-03-29T07:16:01;95618.78;;;16.97;43.42
36192;BME280;22233;42.708;23.360;2024-03-29T07:18:27;95613.34;;;16.85;44.25
36192;BME280;22233;42.708;23.360;2024-03-29T07:20:53;95607.53;;;17.30;43.90
36192;BME280;22233;42.708;23.360;2024-03-29T07:23:19;95593.25;;;17.69;42.10
36192;BME280;22233;42.708;23.360;2024-03-29T07:25:45;95614.13;;;17.57;42.06
36192;BME280;22233;42.708;23.360;2024-03-29T07:28:11;95605.19;;;17.45;42.49
36192;BME280;22233;42.708;23.360;2024-03-29T07:30:40;95611.38;;;17.57;42.46
36192;BME280;22233;42.708;23.360;2024-03-29T07:33:06;95619.63;;;17.57;41.41
36192;BME280;22233;42.708;23.360;2024-03-29T07:35:31;95622.38;;;17.57;42.29
36192;BME280;22233;42.708;23.360;2024-03-29T07:37:57;95612.03;;;17.67;41.38
36192;BME280;22233;42.708;23.360;2024-03-29T07:40:22;95604.84;;;17.78;41.19
36192;BME280;22233;42.708;23.360;2024-03-29T07:42:47;95606.53;;;17.99;41.31
36192;BME280;22233;42.708;23.360;2024-03-29T07:45:13;95604.28;;;18.36;39.28
36192;BME280;22233;42.708;23.360;2024-03-29T07:47:38;95592.63;;;18.43;40.09
36192;BME280;22233;42.708;23.360;2024-03-29T07:50:04;95600.84;;;18.23;40.62
36192;BME280;22233;42.708;23.360;2024-03-29T07:52:31;95590.91;;;18.19;40.62
36192;BME280;22233;42.708;23.360;2024-03-29T07:54:57;95598.78;;;18.36;40.00
36192;BME280;22233;42.708;23.360;2024-03-29T07:57:22;95609.75;;;18.52;39.72
36192;BME280;22233;42.708;23.360;2024-03-29T07:59:50;95606.13;;;18.48;39.67
36192;BME280;22233;42.708;23.360;2024-03-29T08:02:15;95608.06;;;18.83;38.88
36192;BME280;22233;42.708;23.360;2024-03-29T08:04:41;95609.66;;;19.03;38.90
36192;BME280;22233;42.708;23.360;2024-03-29T08:07:08;95585.94;;;18.60;38.72
36192;BME280;22233;42.708;23.360;2024-03-29T08:09:33;95608.38;;;18.62;39.72
36192;BME280;22233;42.708;23.360;2024-03-29T08:11:59;95601.66;;;18.79;39.41
36192;BME280;22233;42.708;23.360;2024-03-29T08:14:25;95598.06;;;19.13;38.85
36192;BME280;22233;42.708;23.360;2024-03-29T08:16:53;95596.63;;;19.00;39.00
36192;BME280;22233;42.708;23.360;2024-03-29T08:19:19;95580.00;;;19.59;38.57
36192;BME280;22233;42.708;23.360;2024-03-29T08:21:45;95582.88;;;19.66;37.61
36192;BME280;22233;42.708;23.360;2024-03-29T08:24:10;95579.84;;;19.71;37.56
36192;BME280;22233;42.708;23.360;2024-03-29T08:26:36;95579.56;;;19.76;37.73
36192;BME280;22233;42.708;23.360;2024-03-29T08:29:02;95574.53;;;19.39;38.08
36192;BME280;22233;42.708;23.360;2024-03-29T08:31:27;95576.06;;;19.60;38.09
36192;BME280;22233;42.708;23.360;2024-03-29T08:33:53;95575.63;;;19.77;37.92
36192;BME280;22233;42.708;23.360;2024-03-29T08:36:18;95589.50;;;20.07;38.05
36192;BME280;22233;42.708;23.360;2024-03-29T08:38:43;95571.09;;;19.88;38.40
36192;BME280;22233;42.708;23.360;2024-03-29T08:41:11;95562.63;;;20.27;36.97
36192;BME280;22233;42.708;23.360;2024-03-29T08:43:37;95571.66;;;20.24;36.99
36192;BME280;22233;42.708;23.360;2024-03-29T08:46:02;95568.97;;;20.31;37.05
36192;BME280;22233;42.708;23.360;2024-03-29T08:48:27;95573.00;;;20.64;36.96
36192;BME280;22233;42.708;23.360;2024-03-29T08:50:53;95559.22;;;20.11;37.98
36192;BME280;22233;42.708;23.360;2024-03-29T08:53:18;95561.41;;;20.25;37.18
36192;BME280;22233;42.708;23.360;2024-03-29T08:55:46;95556.94;;;20.43;37.51
36192;BME280;22233;42.708;23.360;2024-03-29T08:58:11;95563.09;;;20.90;36.86
36192;BME280;22233;42.708;23.360;2024-03-29T09:00:37;95556.44;;;21.32;36.15
36192;BME280;22233;42.708;23.360;2024-03-29T09:03:02;95547.56;;;21.12;36.04
36192;BME280;22233;42.708;23.360;2024-03-29T09:05:28;95551.00;;;21.39;35.15
36192;BME280;22233;42.708;23.360;2024-03-29T09:07:54;95549.59;;;21.56;35.05
36192;BME280;22233;42.708;23.360;2024-03-29T09:10:22;95522.47;;;21.65;34.93
36192;BME280;22233;42.708;23.360;2024-03-29T09:12:49;95530.28;;;22.08;34.53
36192;BME280;22233;42.708;23.360;2024-03-29T09:15:14;95533.13;;;22.22;34.15
36192;BME280;22233;42.708;23.360;2024-03-29T09:17:42;95532.31;;;22.18;34.29
36192;BME280;22233;42.708;23.360;2024-03-29T09:20:07;95526.56;;;22.45;34.36
36192;BME280;22233;42.708;23.360;2024-03-29T09:22:33;95515.56;;;22.59;34.47
36192;BME280;22233;42.708;23.360;2024-03-29T09:24:59;95519.06;;;22.42;34.08
36192;BME280;22233;42.708;23.360;2024-03-29T09:27:26;95520.75;;;22.64;31.52
36192;BME280;22233;42.708;23.360;2024-03-29T09:29:51;95513.66;;;22.70;31.86
36192;BME280;22233;42.708;23.360;2024-03-29T09:32:17;95507.13;;;22.30;32.35
36192;BME280;22233;42.708;23.360;2024-03-29T09:34:43;95489.91;;;22.69;31.72
36192;BME280;22233;42.708;23.360;2024-03-29T09:37:09;95480.69;;;22.37;30.82
36192;BME280;22233;42.708;23.360;2024-03-29T09:39:34;95492.72;;;22.77;31.14
36192;BME280;22233;42.708;23.360;2024-03-29T09:42:02;95482.66;;;22.36;31.79
36192;BME280;22233;42.708;23.360;2024-03-29T09:44:32;95487.13;;;22.62;31.36
36192;BME280;22233;42.708;23.360;2024-03-29T09:47:03;95497.00;;;22.56;31.47
36192;BME280;22233;42.708;23.360;2024-03-29T09:49:30;95468.22;;;22.93;32.42
36192;BME280;22233;42.708;23.360;2024-03-29T09:51:56;95481.00;;;23.23;31.46
36192;BME280;22233;42.708;23.360;2024-03-29T09:54:22;95480.63;;;23.53;31.22
36192;BME280;22233;42.708;23.360;2024-03-29T09:56:49;95481.41;;;23.68;31.49
36192;BME280;22233;42.708;23.360;2024-03-29T09:59:15;95471.53;;;23.81;31.31
36192;BME280;22233;42.708;23.360;2024-03-29T10:01:40;95474.28;;;23.92;30.77
36192;BME280;22233;42.708;23.360;2024-03-29T10:04:07;95475.75;;;22.92;30.27
36192;BME280;22233;42.708;23.360;2024-03-29T10:06:34;95457.66;;;23.31;30.18
36192;BME280;22233;42.708;23.360;2024-03-29T10:09:00;95454.91;;;23.38;31.67
36192;BME280;22233;42.708;23.360;2024-03-29T10:11:26;95473.09;;;23.68;30.81
36192;BME280;22233;42.708;23.360;2024-03-29T10:13:51;95476.69;;;23.93;31.14
36192;BME280;22233;42.708;23.360;2024-03-29T10:16:20;95464.78;;;23.43;30.97
36192;BME280;22233;42.708;23.360;2024-03-29T10:18:50;95462.00;;;23.50;30.69
36192;BME280;22233;42.708;23.360;2024-03-29T10:21:15;95469.94;;;23.55;30.40
36192;BME280;22233;42.708;23.360;2024-03-29T10:23:41;95458.47;;;23.85;30.61
36192;BME280;22233;42.708;23.360;2024-03-29T10:26:08;95446.97;;;23.51;31.00
36192;BME280;22233;42.708;23.360;2024-03-29T10:28:35;95461.56;;;24.12;31.40
36192;BME280;22233;42.708;23.360;2024-03-29T10:31:02;95453.66;;;24.07;30.68
36192;BME280;22233;42.708;23.360;2024-03-29T10:33:33;95464.41;;;23.87;30.67
36192;BME280;22233;42.708;23.360;2024-03-29T10:36:03;95456.47;;;23.53;30.27
36192;BME280;22233;42.708;23.360;2024-03-29T10:38:31;95447.75;;;23.73;30.26
36192;BME280;22233;42.708;23.360;2024-03-29T10:40:57;95447.75;;;23.55;30.33
36192;BME280;22233;42.708;23.360;2024-03-29T10:43:24;95452.47;;;24.19;30.20
36192;BME280;22233;42.708;23.360;2024-03-29T10:45:50;95457.97;;;24.33;29.99
36192;BME280;22233;42.708;23.360;2024-03-29T10:48:16;95436.53;;;24.41;30.11
36192;BME280;22233;42.708;23.360;2024-03-29T10:50:43;95457.09;;;24.65;29.26
36192;BME280;22233;42.708;23.360;2024-03-29T10:53:09;95451.56;;;24.47;30.00
36192;BME280;22233;42.708;23.360;2024-03-29T10:55:37;95444.78;;;24.66;30.72
36192;BME280;22233;42.708;23.360;2024-03-29T10:58:04;95444.75;;;24.70;30.03
36192;BME280;22233;42.708;23.360;2024-03-29T11:00:33;95436.97;;;25.14;30.51
36192;BME280;22233;42.708;23.360;2024-03-29T11:03:23;95422.72;;;25.08;29.71
36192;BME280;22233;42.708;23.360;2024-03-29T11:05:55;95422.13;;;25.38;29.25
36192;BME280;22233;42.708;23.360;2024-03-29T11:08:26;95424.81;;;25.52;30.25
36192;BME280;22233;42.708;23.360;2024-03-29T11:10:58;95412.97;;;25.41;29.49
36192;BME280;22233;42.708;23.360;2024-03-29T11:15:56;95425.50;;;25.64;29.08
36192;BME280;22233;42.708;23.360;2024-03-29T11:18:22;95416.03;;;25.58;29.12
36192;BME280;22233;42.708;23.360;2024-03-29T11:20:50;95407.84;;;25.81;29.11
36192;BME280;22233;42.708;23.360;2024-03-29T11:23:17;95425.00;;;25.27;28.99
36192;BME280;22233;42.708;23.360;2024-03-29T11:25:51;95416.50;;;24.89;29.77
36192;BME280;22233;42.708;23.360;2024-03-29T11:28:32;95420.44;;;24.92;29.78
36192;BME280;22233;42.708;23.360;2024-03-29T11:33:28;95417.75;;;25.37;30.37
36192;BME280;22233;42.708;23.360;2024-03-29T11:35:54;95407.59;;;25.65;30.66
36192;BME280;22233;42.708;23.360;2024-03-29T11:38:19;95418.69;;;25.23;29.55
36192;BME280;22233;42.708;23.360;2024-03-29T11:41:27;95420.91;;;25.43;29.70
36192;BME280;22233;42.708;23.360;2024-03-29T11:43:52;95401.34;;;25.01;29.94
36192;BME280;22233;42.708;23.360;2024-03-29T11:46:18;95419.41;;;25.31;30.12
36192;BME280;22233;42.708;23.360;2024-03-29T11:48:44;95398.31;;;25.37;29.67
36192;BME280;22233;42.708;23.360;2024-03-29T11:51:13;95402.22;;;25.43;30.09
36192;BME280;22233;42.708;23.360;2024-03-29T11:53:40;95387.22;;;25.79;29.89
36192;BME280;22233;42.708;23.360;2024-03-29T11:56:06;95402.50;;;25.60;29.73
36192;BME280;22233;42.708;23.360;2024-03-29T11:58:32;95385.00;;;26.04;30.10
36192;BME280;22233;42.708;23.360;2024-03-29T12:00:59;95394.22;;;26.32;29.72
36192;BME280;22233;42.708;23.360;2024-03-29T12:03:26;95378.63;;;26.38;29.57
36192;BME280;22233;42.708;23.360;2024-03-29T12:05:54;95382.03;;;25.81;29.99
36192;BME280;22233;42.708;23.360;2024-03-29T12:08:22;95389.09;;;26.27;29.40
36192;BME280;22233;42.708;23.360;2024-03-29T12:10:48;95377.19;;;26.57;29.68
36192;BME280;22233;42.708;23.360;2024-03-29T12:13:15;95375.31;;;26.81;29.11
36192;BME280;22233;42.708;23.360;2024-03-29T12:15:41;95386.75;;;27.14;29.42
36192;BME280;22233;42.708;23.360;2024-03-29T12:18:06;95378.16;;;27.05;28.25
36192;BME280;22233;42.708;23.360;2024-03-29T12:20:32;95384.03;;;27.10;28.45
36192;BME280;22233;42.708;23.360;2024-03-29T12:22:59;95393.91;;;27.42;27.84
36192;BME280;22233;42.708;23.360;2024-03-29T12:25:26;95373.28;;;26.51;28.15
36192;BME280;22233;42.708;23.360;2024-03-29T12:27:53;95376.56;;;26.11;29.20
36192;BME280;22233;42.708;23.360;2024-03-29T12:30:18;95384.28;;;26.65;29.34
36192;BME280;22233;42.708;23.360;2024-03-29T12:32:44;95383.03;;;26.97;28.80
36192;BME280;22233;42.708;23.360;2024-03-29T12:35:10;95379.50;;;26.93;27.93
36192;BME280;22233;42.708;23.360;2024-03-29T12:37:36;95374.81;;;26.59;28.06
36192;BME280;22233;42.708;23.360;2024-03-29T12:40:04;95375.41;;;26.40;28.35
36192;BME280;22233;42.708;23.360;2024-03-29T12:42:40;95359.56;;;26.37;28.65
36192;BME280;22233;42.708;23.360;2024-03-29T12:45:07;95379.09;;;25.99;28.61
36192;BME280;22233;42.708;23.360;2024-03-29T12:47:34;95379.66;;;26.17;28.46
36192;BME280;22233;42.708;23.360;2024-03-29T12:50:00;95372.63;;;26.40;28.18
36192;BME280;22233;42.708;23.360;2024-03-29T12:52:26;95368.81;;;26.88;28.18